createdAt,value
2023-01-27T00:15:35.455Z,3
2023-01-27T00:25:37.807Z,3
2023-01-27T00:35:40.092Z,3
2023-01-27T00:45:41.869Z,3
2023-01-27T01:05:46.727Z,2.7
2023-01-27T01:15:49.031Z,2.4
2023-01-27T01:25:50.942Z,2.3
2023-01-27T01:35:53.295Z,2.2
2023-01-27T01:45:55.333Z,2.2
2023-01-27T01:55:57.482Z,2
2023-01-27T02:05:59.721Z,2
2023-01-27T02:26:04.241Z,1.9
2023-01-27T02:36:06.404Z,1.9
2023-01-27T02:46:08.942Z,1.9
2023-01-27T02:56:11.082Z,1.9
2023-01-27T03:06:13.616Z,1.9
2023-01-27T03:16:16.189Z,1.8
2023-01-27T03:26:18.616Z,1.9
2023-01-27T03:36:20.645Z,1.9
2023-01-27T03:56:24.919Z,1.8
2023-01-27T04:06:27.477Z,1.9
2023-01-27T04:16:29.496Z,1.9
2023-01-27T04:26:31.887Z,1.9
2023-01-27T04:36:34.168Z,2
2023-01-27T04:46:35.954Z,2.1
2023-01-27T04:56:38.661Z,2.2
2023-01-27T05:06:40.591Z,2.3
2023-01-27T05:16:43.228Z,2.4
2023-01-27T05:26:45.219Z,2.5
2023-01-27T05:36:47.848Z,2.5
2023-01-27T05:46:50.094Z,2.5
2023-01-27T06:16:56.167Z,2.6
2023-01-27T06:26:58.420Z,2.7
2023-01-27T06:37:00.912Z,2.7
2023-01-27T06:47:03.525Z,2.8
2023-01-27T06:57:05.976Z,2.7
2023-01-27T07:07:08.041Z,2.7
2023-01-27T07:17:10.374Z,2.7
2023-01-27T07:27:12.710Z,2.7
2023-01-27T07:37:15.451Z,2.8
2023-01-27T07:47:17.754Z,2.9
2023-01-27T07:57:19.912Z,2.9
2023-01-27T08:07:21.697Z,3
2023-01-27T08:17:23.878Z,3.1
2023-01-27T08:27:25.938Z,3.1
2023-01-27T08:37:28.067Z,3.1
2023-01-27T08:47:30.444Z,3.1
2023-01-27T09:07:35.075Z,3.2
2023-01-27T09:17:36.781Z,3.3
2023-01-27T09:27:40.044Z,3.3
2023-01-27T09:47:43.927Z,3.3
2023-01-27T09:57:46.196Z,3.3
2023-01-27T10:07:48.644Z,3.4
2023-01-27T10:17:50.966Z,3.4
2023-01-27T10:27:53.302Z,3.4
2023-01-27T10:37:55.300Z,3.5
2023-01-27T10:47:57.408Z,3.4
2023-01-27T10:57:59.489Z,3.5
2023-01-27T11:08:02.132Z,3.6
2023-01-27T11:18:03.967Z,3.6
2023-01-27T11:28:05.785Z,3.7
2023-01-27T11:38:15.190Z,3.9
2023-01-27T11:48:09.900Z,3.9
2023-01-27T11:58:12.047Z,4
2023-01-27T12:08:14.824Z,4
2023-01-27T12:18:17.164Z,4
2023-01-27T12:28:19.413Z,4
2023-01-27T12:38:21.940Z,3.9
2023-01-27T12:48:23.648Z,4
2023-01-27T12:58:26.237Z,3.8
2023-01-27T13:08:28.104Z,3.8
2023-01-27T13:18:30.034Z,3.9
2023-01-27T13:28:42.762Z,3.8
2023-01-27T13:38:34.609Z,3.8
2023-01-27T13:48:36.993Z,3.6
2023-01-27T13:58:38.734Z,3.5
2023-01-27T14:08:40.464Z,3.5
2023-01-27T14:18:43.306Z,3.5
2023-01-27T14:28:45.975Z,3.6
2023-01-27T14:38:48.407Z,3.7
2023-01-27T14:48:50.251Z,3.7
2023-01-27T14:58:52.748Z,3.6
2023-01-27T15:08:54.620Z,3.5
2023-01-27T15:18:57.189Z,3.5
2023-01-27T15:28:59.861Z,3.6
2023-01-27T15:39:02.028Z,3.7
2023-01-27T15:49:04.191Z,3.7
2023-01-27T15:59:06.248Z,3.6
2023-01-27T16:09:08.566Z,3.6
2023-01-27T16:19:11.056Z,3.5
2023-01-27T16:29:12.364Z,3.4
2023-01-27T16:39:14.759Z,3.4
2023-01-27T16:49:17.070Z,3.4
2023-01-27T16:59:19.753Z,3.2
2023-01-27T17:09:21.852Z,3.2
2023-01-27T17:19:24.857Z,3.1
2023-01-27T17:29:26.448Z,3.1
2023-01-27T17:39:28.385Z,3.1
2023-01-27T17:49:30.889Z,3
2023-01-27T17:59:33.414Z,3
2023-01-27T18:09:36.049Z,2.9
2023-01-27T18:19:38.560Z,2.9
2023-01-27T18:29:41.149Z,2.9
2023-01-27T18:39:42.939Z,2.8
2023-01-27T18:49:44.889Z,2.8
2023-01-27T18:59:46.630Z,2.9
2023-01-27T19:09:48.178Z,2.9
2023-01-27T19:19:50.814Z,2.9
2023-01-27T19:29:53.412Z,2.8
2023-01-27T19:39:55.803Z,2.8
2023-01-27T19:49:57.597Z,2.7
2023-01-27T19:59:59.599Z,2.6
2023-01-27T20:02:37.978Z,2.6
2023-01-27T20:10:11.310Z,2.6
2023-01-27T20:20:13.856Z,2.6
2023-01-27T20:30:16.118Z,2.6
2023-01-27T20:50:19.965Z,2.5
2023-01-27T21:00:21.842Z,2.4
2023-01-27T21:10:23.815Z,2.4
2023-01-27T21:20:25.715Z,2.3
2023-01-27T21:30:28.161Z,2.2
2023-01-27T21:40:30.332Z,2.1
2023-01-27T21:50:32.840Z,2.1
2023-01-27T22:00:34.712Z,1.9
2023-01-27T22:10:36.903Z,1.7
2023-01-27T22:20:39.506Z,1.7
2023-01-27T22:30:41.657Z,1.7
2023-01-27T22:40:43.906Z,1.6
2023-01-27T22:50:46.520Z,1.5
2023-01-27T23:00:48.846Z,1.4
